createdAt,value
2022-08-17T00:01:51.795Z,18.90
2022-08-17T00:04:56.178Z,19.00
2022-08-17T00:08:01.213Z,19.00
2022-08-17T00:11:09.747Z,19.00
2022-08-17T00:14:17.884Z,18.90
2022-08-17T00:17:22.275Z,18.70
2022-08-17T00:20:32.065Z,18.70
2022-08-17T00:23:46.228Z,18.70
2022-08-17T00:26:53.687Z,18.70
2022-08-17T00:29:58.300Z,18.70
2022-08-17T00:33:23.497Z,18.70
2022-08-17T00:36:28.498Z,18.80
2022-08-17T00:39:33.255Z,18.70
2022-08-17T00:42:38.343Z,18.70
2022-08-17T00:45:43.094Z,18.60
2022-08-17T00:48:48.507Z,18.60
2022-08-17T00:52:04.460Z,18.60
2022-08-17T00:55:17.232Z,18.60
2022-08-17T00:58:35.949Z,18.50
2022-08-17T01:01:41.534Z,18.60
2022-08-17T01:04:49.358Z,18.60
2022-08-17T01:07:54.894Z,18.50
2022-08-17T01:11:05.274Z,18.60
2022-08-17T01:14:10.114Z,18.40
2022-08-17T01:17:14.867Z,18.40
2022-08-17T01:20:19.514Z,18.40
2022-08-17T01:23:27.477Z,18.30
2022-08-17T01:26:33.101Z,18.30
2022-08-17T01:29:40.858Z,18.30
2022-08-17T01:32:46.007Z,18.30
2022-08-17T01:35:50.712Z,18.30
2022-08-17T01:38:55.019Z,18.30
2022-08-17T01:42:11.071Z,18.30
2022-08-17T01:45:23.177Z,18.30
2022-08-17T01:48:33.400Z,18.40
2022-08-17T01:51:39.134Z,18.30
2022-08-17T01:54:47.071Z,18.40
2022-08-17T01:57:51.542Z,18.40
2022-08-17T02:01:00.731Z,18.30
2022-08-17T02:04:06.983Z,18.30
2022-08-17T02:07:11.818Z,18.20
2022-08-17T02:10:20.156Z,18.20
2022-08-17T02:13:28.054Z,18.30
2022-08-17T02:16:38.356Z,18.20
2022-08-17T02:19:43.217Z,18.20
2022-08-17T02:22:48.891Z,18.20
2022-08-17T02:25:55.811Z,18.20
2022-08-17T02:29:00.127Z,18.10
2022-08-17T02:32:05.047Z,18.00
2022-08-17T02:35:10.303Z,18.00
2022-08-17T02:38:15.171Z,18.00
2022-08-17T02:41:19.989Z,18.10
2022-08-17T02:44:38.890Z,18.00
2022-08-17T02:47:45.487Z,17.90
2022-08-17T02:50:50.241Z,17.90
2022-08-17T02:54:02.056Z,17.90
2022-08-17T02:57:18.568Z,17.90
2022-08-17T03:00:26.772Z,17.90
2022-08-17T03:03:31.163Z,17.80
2022-08-17T03:06:35.880Z,17.80
2022-08-17T03:09:40.742Z,17.80
2022-08-17T03:12:45.830Z,17.70
2022-08-17T03:15:50.895Z,17.70
2022-08-17T03:18:55.414Z,17.70
2022-08-17T03:22:00.045Z,17.60
2022-08-17T03:25:31.234Z,17.50
2022-08-17T03:28:39.786Z,17.50
2022-08-17T03:31:45.645Z,17.50
2022-08-17T03:34:50.199Z,17.50
2022-08-17T03:38:00.951Z,17.50
2022-08-17T03:41:06.115Z,17.40
2022-08-17T03:44:10.708Z,17.40
2022-08-17T03:47:33.791Z,17.40
2022-08-17T03:50:56.647Z,17.40
2022-08-17T03:54:19.622Z,17.40
2022-08-17T03:57:24.605Z,17.50
2022-08-17T04:00:29.131Z,17.40
2022-08-17T04:03:33.909Z,17.50
2022-08-17T04:06:38.804Z,17.40
2022-08-17T04:09:43.646Z,17.50
2022-08-17T04:12:58.147Z,17.40
2022-08-17T04:16:03.067Z,17.50
2022-08-17T04:19:09.167Z,17.60
2022-08-17T04:22:30.292Z,17.50
2022-08-17T04:25:42.058Z,17.60
2022-08-17T04:28:46.815Z,17.70
2022-08-17T04:31:51.963Z,17.70
2022-08-17T04:34:56.487Z,17.80
2022-08-17T04:38:00.944Z,17.90
2022-08-17T04:41:25.065Z,17.90
2022-08-17T04:44:37.648Z,17.90
2022-08-17T04:47:43.855Z,17.80
2022-08-17T04:50:51.555Z,17.80
2022-08-17T04:54:00.654Z,17.90
2022-08-17T04:57:05.329Z,17.80
2022-08-17T05:00:10.646Z,18.00
2022-08-17T05:03:15.420Z,18.20
2022-08-17T05:06:20.095Z,18.30
2022-08-17T05:09:24.807Z,18.50
2022-08-17T05:12:29.118Z,18.60
2022-08-17T05:15:35.968Z,19.00
2022-08-17T05:18:40.720Z,19.30
2022-08-17T05:21:45.535Z,19.60
2022-08-17T05:24:53.973Z,20.00
2022-08-17T05:28:00.551Z,20.40
2022-08-17T05:31:06.802Z,20.70
2022-08-17T05:34:11.481Z,21.00
2022-08-17T05:37:16.251Z,21.20
2022-08-17T05:40:21.689Z,21.10
2022-08-17T05:43:28.935Z,20.90
2022-08-17T05:46:39.194Z,21.10
2022-08-17T05:49:43.441Z,21.30
2022-08-17T05:53:10.346Z,21.40
2022-08-17T05:56:30.179Z,21.50
2022-08-17T05:59:52.601Z,21.50
2022-08-17T06:03:26.241Z,21.90
2022-08-17T06:06:42.062Z,22.50
2022-08-17T06:09:49.683Z,22.10
2022-08-17T06:12:56.748Z,22.20
2022-08-17T06:16:33.116Z,22.40
2022-08-17T06:19:43.391Z,22.60
2022-08-17T06:22:55.710Z,22.60
2022-08-17T06:26:05.869Z,22.50
2022-08-17T06:29:35.382Z,22.70
2022-08-17T06:32:43.872Z,22.60
2022-08-17T06:36:17.483Z,22.80
2022-08-17T06:39:31.432Z,22.80
2022-08-17T06:43:02.111Z,23.00
2022-08-17T06:46:15.461Z,23.00
2022-08-17T06:49:40.546Z,22.90
2022-08-17T06:53:25.741Z,22.90
2022-08-17T06:56:53.331Z,23.00
2022-08-17T07:00:08.967Z,23.50
2022-08-17T07:03:22.791Z,24.50
2022-08-17T07:06:33.981Z,23.80
2022-08-17T07:09:42.982Z,23.20
2022-08-17T07:12:48.839Z,23.20
2022-08-17T07:15:59.040Z,23.20
2022-08-17T07:19:05.979Z,23.60
2022-08-17T07:22:30.595Z,24.50
2022-08-17T07:26:07.290Z,25.70
2022-08-17T07:29:17.817Z,24.80
2022-08-17T07:32:31.850Z,24.20
2022-08-17T07:35:41.275Z,24.20
2022-08-17T07:38:57.617Z,23.90
2022-08-17T07:42:04.279Z,24.40
2022-08-17T07:45:29.179Z,24.80
2022-08-17T07:48:38.039Z,25.40
2022-08-17T07:51:55.325Z,26.20
2022-08-17T07:55:25.392Z,26.50
2022-08-17T07:58:30.050Z,25.60
2022-08-17T08:01:39.369Z,26.10
2022-08-17T08:05:01.442Z,26.30
2022-08-17T08:08:25.661Z,26.00
2022-08-17T08:11:36.080Z,25.60
2022-08-17T08:14:42.229Z,25.90
2022-08-17T08:17:54.066Z,25.70
2022-08-17T08:21:05.074Z,25.50
2022-08-17T08:24:49.793Z,25.30
2022-08-17T08:28:04.794Z,25.40
2022-08-17T08:31:44.144Z,25.90
2022-08-17T08:35:30.869Z,26.40
2022-08-17T08:38:59.433Z,26.60
2022-08-17T08:42:19.220Z,27.00
2022-08-17T08:45:35.286Z,26.40
2022-08-17T08:48:58.596Z,27.10
2022-08-17T08:52:28.313Z,27.20
2022-08-17T08:55:51.562Z,26.30
2022-08-17T08:59:27.391Z,26.10
2022-08-17T09:03:03.007Z,25.70
2022-08-17T09:06:28.686Z,26.50
2022-08-17T09:10:13.962Z,26.60
2022-08-17T09:14:21.254Z,27.20
2022-08-17T09:18:14.678Z,28.10
2022-08-17T09:21:28.978Z,27.50
2022-08-17T09:24:54.567Z,27.90
2022-08-17T09:28:03.861Z,28.60
2022-08-17T09:31:46.304Z,28.00
2022-08-17T09:34:59.968Z,26.70
2022-08-17T09:38:39.425Z,26.50
2022-08-17T09:41:52.777Z,26.40
2022-08-17T09:45:34.072Z,27.60
2022-08-17T09:49:00.666Z,28.90
2022-08-17T09:52:19.824Z,28.20
2022-08-17T09:55:37.458Z,27.80
2022-08-17T09:59:03.807Z,28.10
2022-08-17T10:02:49.604Z,29.20
2022-08-17T10:06:18.628Z,28.30
2022-08-17T10:09:47.439Z,27.70
2022-08-17T10:13:26.922Z,28.80
2022-08-17T10:16:49.087Z,30.00
2022-08-17T10:20:11.306Z,31.70
2022-08-17T10:23:41.196Z,32.00
2022-08-17T10:26:57.050Z,32.10
2022-08-17T10:30:04.837Z,30.70
2022-08-17T10:33:17.565Z,31.30
2022-08-17T10:36:59.171Z,31.90
2022-08-17T10:40:34.333Z,31.00
2022-08-17T10:43:58.899Z,29.80
2022-08-17T10:47:19.031Z,30.40
2022-08-17T10:50:57.587Z,29.20
2022-08-17T10:54:03.289Z,28.90
2022-08-17T10:57:31.733Z,29.20
2022-08-17T11:00:42.403Z,29.40
2022-08-17T11:03:55.740Z,29.10
2022-08-17T11:07:10.390Z,29.60
2022-08-17T11:10:33.155Z,29.90
2022-08-17T11:13:55.793Z,31.30
2022-08-17T11:17:31.104Z,29.50
2022-08-17T11:21:08.900Z,28.70
2022-08-17T11:24:23.101Z,29.20
2022-08-17T11:27:33.929Z,30.90
2022-08-17T11:30:47.009Z,31.90
2022-08-17T11:33:58.054Z,32.10
2022-08-17T11:37:11.130Z,31.50
2022-08-17T11:40:24.689Z,29.80
2022-08-17T11:43:43.382Z,29.20
2022-08-17T11:47:12.627Z,29.30
2022-08-17T11:50:46.942Z,29.40
2022-08-17T11:54:03.617Z,29.00
2022-08-17T11:57:25.455Z,28.80
2022-08-17T12:00:45.690Z,29.50
2022-08-17T12:04:13.326Z,29.70
2022-08-17T12:07:23.164Z,29.70
2022-08-17T12:10:34.298Z,30.50
2022-08-17T12:13:46.569Z,32.70
2022-08-17T12:17:40.615Z,33.60
2022-08-17T12:21:02.354Z,32.80
2022-08-17T12:24:35.350Z,33.40
2022-08-17T12:28:05.152Z,32.40
2022-08-17T12:31:35.069Z,33.50
2022-08-17T12:34:41.807Z,33.70
2022-08-17T12:37:50.302Z,31.90
2022-08-17T12:40:58.002Z,30.20
2022-08-17T12:44:12.139Z,29.50
2022-08-17T12:47:22.265Z,29.30
2022-08-17T12:50:30.239Z,28.80
2022-08-17T12:53:35.799Z,29.50
2022-08-17T12:56:40.991Z,29.50
2022-08-17T12:59:50.381Z,29.40
2022-08-17T13:03:07.698Z,29.50
2022-08-17T13:06:28.594Z,29.10
2022-08-17T13:09:35.820Z,29.40
2022-08-17T13:12:45.640Z,29.70
2022-08-17T13:16:18.130Z,30.30
2022-08-17T13:19:40.475Z,31.30
2022-08-17T13:22:58.004Z,30.70
2022-08-17T13:26:14.562Z,30.90
2022-08-17T13:29:23.820Z,30.90
2022-08-17T13:32:41.256Z,31.20
2022-08-17T13:35:50.214Z,32.00
2022-08-17T13:39:11.949Z,32.90
2022-08-17T13:42:30.278Z,33.70
2022-08-17T13:45:39.002Z,33.10
2022-08-17T13:48:44.263Z,30.30
2022-08-17T13:51:52.029Z,30.40
2022-08-17T13:55:03.350Z,30.20
2022-08-17T13:58:08.076Z,30.40
2022-08-17T14:01:32.182Z,29.50
2022-08-17T14:04:39.641Z,29.00
2022-08-17T14:07:44.060Z,28.50
2022-08-17T14:10:57.851Z,28.20
2022-08-17T14:14:04.094Z,28.30
2022-08-17T14:17:08.915Z,28.20
2022-08-17T14:20:14.800Z,28.10
2022-08-17T14:23:19.236Z,28.40
2022-08-17T14:26:23.729Z,29.30
2022-08-17T14:29:30.412Z,28.80
2022-08-17T14:32:36.959Z,28.10
2022-08-17T14:35:41.331Z,28.50
2022-08-17T14:38:45.925Z,28.40
2022-08-17T14:41:50.631Z,28.30
2022-08-17T14:44:56.218Z,28.30
2022-08-17T14:48:04.015Z,28.70
2022-08-17T14:51:08.949Z,27.80
2022-08-17T14:54:32.912Z,28.10
2022-08-17T14:57:38.482Z,28.30
2022-08-17T15:00:43.619Z,28.70
2022-08-17T15:03:48.471Z,28.90
2022-08-17T15:06:52.897Z,28.90
2022-08-17T15:09:58.669Z,28.50
2022-08-17T15:13:20.007Z,28.40
2022-08-17T15:16:24.555Z,28.10
2022-08-17T15:19:29.004Z,28.10
2022-08-17T15:22:33.650Z,27.80
2022-08-17T15:25:38.300Z,28.00
2022-08-17T15:28:42.806Z,27.90
2022-08-17T15:31:47.319Z,27.90
2022-08-17T15:34:54.663Z,27.80
2022-08-17T15:38:08.034Z,27.00
2022-08-17T15:41:18.249Z,27.00
2022-08-17T15:44:22.494Z,27.00
2022-08-17T15:47:37.228Z,26.60
2022-08-17T15:50:43.143Z,26.60
2022-08-17T15:53:50.613Z,26.20
2022-08-17T15:56:55.517Z,26.40
2022-08-17T16:00:00.422Z,26.50
2022-08-17T16:03:46.051Z,26.20
2022-08-17T16:06:29.723Z,25.80
2022-08-17T16:09:34.402Z,26.00
2022-08-17T16:12:38.991Z,26.90
2022-08-17T16:15:43.482Z,27.40
2022-08-17T16:18:47.862Z,27.60
2022-08-17T16:22:03.460Z,27.80
2022-08-17T16:25:18.759Z,29.60
2022-08-17T16:28:30.923Z,29.60
2022-08-17T16:31:42.372Z,28.70
2022-08-17T16:34:46.990Z,29.10
2022-08-17T16:37:54.864Z,28.60
2022-08-17T16:40:59.730Z,27.90
2022-08-17T16:44:04.581Z,27.50
2022-08-17T16:47:10.533Z,27.80
2022-08-17T16:50:17.589Z,28.00
2022-08-17T16:53:22.062Z,28.70
2022-08-17T16:56:26.704Z,29.80
2022-08-17T16:59:40.883Z,31.90
2022-08-17T17:02:49.546Z,32.80
2022-08-17T17:06:06.377Z,32.90
2022-08-17T17:09:16.610Z,32.40
2022-08-17T17:13:01.723Z,30.90
2022-08-17T17:15:57.701Z,29.00
2022-08-17T17:19:32.527Z,27.40
2022-08-17T17:22:48.246Z,26.90
2022-08-17T17:26:21.783Z,26.30
2022-08-17T17:29:48.653Z,26.00
2022-08-17T17:33:21.220Z,25.60
2022-08-17T17:36:42.033Z,25.40
2022-08-17T17:39:51.179Z,25.00
2022-08-17T17:43:14.338Z,24.90
2022-08-17T17:46:33.340Z,24.70
2022-08-17T17:49:44.990Z,24.60
2022-08-17T17:53:02.142Z,24.40
2022-08-17T17:56:43.697Z,24.30
2022-08-17T18:00:18.182Z,24.10
2022-08-17T18:03:28.736Z,24.20
2022-08-17T18:07:04.374Z,24.20
2022-08-17T18:10:31.819Z,24.10
2022-08-17T18:13:42.376Z,23.80
2022-08-17T18:16:53.301Z,23.80
2022-08-17T18:19:57.789Z,23.60
2022-08-17T18:23:03.512Z,23.60
2022-08-17T18:26:07.953Z,23.70
2022-08-17T18:29:34.377Z,23.70
2022-08-17T18:32:42.039Z,23.70
2022-08-17T18:35:58.864Z,23.60
2022-08-17T18:39:14.746Z,23.60
2022-08-17T18:42:28.873Z,23.60
2022-08-17T18:45:46.011Z,23.50
2022-08-17T18:48:59.050Z,23.40
2022-08-17T18:52:22.714Z,23.30
2022-08-17T18:55:30.056Z,23.10
2022-08-17T18:58:34.543Z,23.00
2022-08-17T19:01:59.197Z,22.90
2022-08-17T19:05:27.906Z,22.90
2022-08-17T19:08:34.233Z,22.70
2022-08-17T19:11:39.733Z,22.60
2022-08-17T19:14:44.449Z,22.60
2022-08-17T19:18:02.048Z,22.50
2022-08-17T19:21:20.494Z,22.50
2022-08-17T19:24:27.637Z,22.40
2022-08-17T19:27:42.005Z,22.30
2022-08-17T19:31:08.471Z,22.20
2022-08-17T19:34:17.657Z,22.10
2022-08-17T19:38:03.394Z,22.00
2022-08-17T19:41:12.149Z,22.00
2022-08-17T19:44:47.152Z,21.90
2022-08-17T19:48:20.638Z,21.80
2022-08-17T19:51:44.647Z,21.70
2022-08-17T19:55:21.039Z,21.60
2022-08-17T19:58:25.498Z,21.50
2022-08-17T20:01:44.186Z,21.50
2022-08-17T20:04:50.755Z,21.40
2022-08-17T20:08:04.099Z,21.30
2022-08-17T20:11:11.434Z,21.20
2022-08-17T20:14:23.571Z,21.10
2022-08-17T20:17:34.450Z,21.10
2022-08-17T20:21:19.829Z,21.00
2022-08-17T20:24:46.990Z,20.90
2022-08-17T20:28:06.390Z,20.90
2022-08-17T20:31:39.150Z,20.80
2022-08-17T20:34:47.081Z,20.70
2022-08-17T20:38:02.499Z,20.60
2022-08-17T20:41:22.456Z,20.60
2022-08-17T20:44:35.719Z,20.50
2022-08-17T20:48:07.437Z,20.40
2022-08-17T20:51:32.380Z,20.40
2022-08-17T20:54:52.714Z,20.30
2022-08-17T20:57:57.136Z,20.20
2022-08-17T21:01:14.444Z,20.20
2022-08-17T21:04:47.278Z,20.10
2022-08-17T21:07:55.674Z,20.00
2022-08-17T21:11:21.681Z,20.00
2022-08-17T21:15:07.807Z,19.90
2022-08-17T21:18:32.349Z,19.80
2022-08-17T21:21:58.296Z,19.70
2022-08-17T21:25:21.818Z,19.70
2022-08-17T21:28:33.773Z,19.60
2022-08-17T21:31:49.082Z,19.60
2022-08-17T21:35:23.383Z,19.50
2022-08-17T21:38:37.425Z,19.50
2022-08-17T21:42:00.414Z,19.40
2022-08-17T21:45:32.017Z,19.40
2022-08-17T21:48:45.032Z,19.40
2022-08-17T21:51:55.056Z,19.40
2022-08-17T21:55:02.398Z,19.30
2022-08-17T21:58:24.364Z,19.30
2022-08-17T22:01:34.562Z,19.20
2022-08-17T22:04:42.212Z,19.20
2022-08-17T22:07:50.645Z,19.20
2022-08-17T22:11:01.896Z,19.20
2022-08-17T22:14:21.466Z,19.20
2022-08-17T22:17:30.233Z,19.10
2022-08-17T22:20:34.973Z,19.10
2022-08-17T22:24:06.595Z,19.00
2022-08-17T22:27:12.907Z,19.00
2022-08-17T22:30:19.308Z,18.90
2022-08-17T22:33:33.283Z,18.90
2022-08-17T22:36:39.921Z,18.90
2022-08-17T22:39:45.300Z,18.90
2022-08-17T22:42:50.087Z,18.80
2022-08-17T22:45:58.964Z,18.70
2022-08-17T22:49:03.542Z,18.80
2022-08-17T22:52:23.698Z,18.70
2022-08-17T22:55:52.295Z,18.60
2022-08-17T22:59:17.729Z,18.60
2022-08-17T23:02:28.627Z,18.50
2022-08-17T23:05:34.003Z,18.50
2022-08-17T23:09:05.111Z,18.50
2022-08-17T23:12:14.859Z,18.50
2022-08-17T23:15:20.129Z,18.40
2022-08-17T23:18:25.846Z,18.40
2022-08-17T23:21:30.984Z,18.30
2022-08-17T23:24:48.931Z,18.30
2022-08-17T23:27:54.433Z,18.20
2022-08-17T23:30:58.979Z,18.20
2022-08-17T23:34:05.448Z,18.20
2022-08-17T23:37:13.702Z,18.10
2022-08-17T23:40:18.438Z,18.20
2022-08-17T23:43:25.541Z,18.10
2022-08-17T23:46:32.832Z,18.00
2022-08-17T23:49:37.486Z,18.00
2022-08-17T23:52:43.766Z,18.00
2022-08-17T23:55:48.418Z,18.00
2022-08-17T23:59:14.334Z,17.90
